createdAt,value
2019-05-03T00:00:57.931Z,12.30
2019-05-03T00:03:24.773Z,12.30
2019-05-03T00:05:52.501Z,12.20
2019-05-03T00:08:19.279Z,12.20
2019-05-03T00:10:46.119Z,12.10
2019-05-03T00:13:12.965Z,12.10
2019-05-03T00:15:47.075Z,12.00
2019-05-03T00:18:13.506Z,12.00
2019-05-03T00:20:41.992Z,11.90
2019-05-03T00:23:08.548Z,11.90
2019-05-03T00:25:35.198Z,11.90
2019-05-03T00:28:02.049Z,11.80
2019-05-03T00:30:28.769Z,11.80
2019-05-03T00:32:55.713Z,11.70
2019-05-03T00:35:24.098Z,11.70
2019-05-03T00:37:52.675Z,11.70
2019-05-03T00:40:28.841Z,11.60
2019-05-03T00:42:58.037Z,11.60
2019-05-03T00:45:24.875Z,11.50
2019-05-03T00:47:52.748Z,11.50
2019-05-03T00:50:19.585Z,11.50
2019-05-03T00:52:46.018Z,11.40
2019-05-03T00:55:17.062Z,11.40
2019-05-03T00:57:42.160Z,11.30
2019-05-03T01:00:09.103Z,11.30
2019-05-03T01:02:35.742Z,11.30
2019-05-03T01:05:04.644Z,11.20
2019-05-03T01:07:31.869Z,11.20
2019-05-03T01:09:58.872Z,11.20
2019-05-03T01:12:25.368Z,11.20
2019-05-03T01:14:54.051Z,11.20
2019-05-03T01:17:22.384Z,11.10
2019-05-03T01:19:48.962Z,11.10
2019-05-03T01:22:15.600Z,11.10
2019-05-03T01:24:42.770Z,11.10
2019-05-03T01:27:09.388Z,11.10
2019-05-03T01:29:35.923Z,11.00
2019-05-03T01:32:02.561Z,11.10
2019-05-03T01:34:29.609Z,11.00
2019-05-03T01:36:56.147Z,11.00
2019-05-03T01:39:22.985Z,11.00
2019-05-03T01:41:49.621Z,10.90
2019-05-03T01:44:16.054Z,10.90
2019-05-03T01:46:42.591Z,10.90
2019-05-03T01:49:14.043Z,10.90
2019-05-03T01:51:52.649Z,10.80
2019-05-03T01:54:19.203Z,10.80
2019-05-03T01:56:56.074Z,10.80
2019-05-03T01:59:14.210Z,10.90
2019-05-03T02:01:42.590Z,10.90
2019-05-03T02:04:12.218Z,10.90
2019-05-03T02:06:39.042Z,10.90
2019-05-03T02:09:07.870Z,11.00
2019-05-03T02:11:34.808Z,11.00
2019-05-03T02:14:01.734Z,11.00
2019-05-03T02:16:28.352Z,11.10
2019-05-03T02:18:54.993Z,11.10
2019-05-03T02:21:21.718Z,11.10
2019-05-03T02:23:48.483Z,11.10
2019-05-03T02:26:15.005Z,11.20
2019-05-03T02:28:42.124Z,11.20
2019-05-03T02:31:08.794Z,11.20
2019-05-03T02:33:35.327Z,11.30
2019-05-03T02:36:03.756Z,11.30
2019-05-03T02:38:30.444Z,11.30
2019-05-03T02:40:57.082Z,11.30
2019-05-03T02:43:26.171Z,11.30
2019-05-03T02:46:00.810Z,11.30
2019-05-03T02:48:46.284Z,11.30
2019-05-03T02:51:15.446Z,11.30
2019-05-03T02:53:41.300Z,11.30
2019-05-03T02:56:20.979Z,11.30
2019-05-03T02:58:36.632Z,11.30
2019-05-03T03:01:06.468Z,11.30
2019-05-03T03:03:36.070Z,11.30
2019-05-03T03:06:06.352Z,11.30
2019-05-03T03:08:33.632Z,11.30
2019-05-03T03:11:06.605Z,11.30
2019-05-03T03:13:37.135Z,11.20
2019-05-03T03:16:07.008Z,11.20
2019-05-03T03:18:36.661Z,11.20
2019-05-03T03:21:05.826Z,11.20
2019-05-03T03:23:46.116Z,11.20
2019-05-03T03:26:20.304Z,11.20
2019-05-03T03:28:46.230Z,11.20
2019-05-03T03:31:29.026Z,11.10
2019-05-03T03:33:59.775Z,11.10
2019-05-03T03:36:45.947Z,11.10
2019-05-03T03:38:55.731Z,11.10
2019-05-03T03:41:24.959Z,11.10
2019-05-03T03:43:55.798Z,11.00
2019-05-03T03:46:25.288Z,11.10
2019-05-03T03:48:55.922Z,11.10
2019-05-03T03:51:26.148Z,11.10
2019-05-03T03:53:55.443Z,11.10
2019-05-03T03:56:20.941Z,11.10
2019-05-03T03:58:48.094Z,11.00
2019-05-03T04:01:15.696Z,11.10
2019-05-03T04:03:46.035Z,11.00
2019-05-03T04:06:12.092Z,11.00
2019-05-03T04:08:39.549Z,11.00
2019-05-03T04:11:06.396Z,11.00
2019-05-03T04:13:35.984Z,10.90
2019-05-03T04:16:05.387Z,10.90
2019-05-03T04:18:36.340Z,10.90
2019-05-03T04:21:05.398Z,10.90
2019-05-03T04:23:32.274Z,11.00
2019-05-03T04:25:59.233Z,11.00
2019-05-03T04:28:26.063Z,11.00
2019-05-03T04:30:55.186Z,11.00
2019-05-03T04:33:21.182Z,11.10
2019-05-03T04:35:47.932Z,11.10
2019-05-03T04:38:16.288Z,11.20
2019-05-03T04:40:45.115Z,11.20
2019-05-03T04:43:10.965Z,11.20
2019-05-03T04:45:37.375Z,11.20
2019-05-03T04:48:05.951Z,11.30
2019-05-03T04:50:36.370Z,11.30
2019-05-03T04:53:05.506Z,11.30
2019-05-03T04:55:30.544Z,11.30
2019-05-03T04:57:57.078Z,11.40
2019-05-03T05:00:25.593Z,11.40
2019-05-03T05:02:54.871Z,11.40
2019-05-03T05:05:20.364Z,11.40
2019-05-03T05:07:47.033Z,11.40
2019-05-03T05:10:15.334Z,11.40
2019-05-03T05:12:41.923Z,11.40
2019-05-03T05:15:08.606Z,11.40
2019-05-03T05:17:46.055Z,11.40
2019-05-03T05:20:17.627Z,11.40
2019-05-03T05:22:45.403Z,11.40
2019-05-03T05:25:14.866Z,11.50
2019-05-03T05:27:49.456Z,11.50
2019-05-03T05:30:14.815Z,11.60
2019-05-03T05:32:41.033Z,11.60
2019-05-03T05:35:07.876Z,11.70
2019-05-03T05:37:35.232Z,11.70
2019-05-03T05:40:05.202Z,11.80
2019-05-03T05:42:31.370Z,11.80
2019-05-03T05:44:57.695Z,12.00
2019-05-03T05:47:34.777Z,12.10
2019-05-03T05:50:04.933Z,12.30
2019-05-03T05:52:31.432Z,12.40
2019-05-03T05:54:59.718Z,12.50
2019-05-03T05:57:30.588Z,12.70
2019-05-03T06:00:11.108Z,12.90
2019-05-03T06:02:37.358Z,13.10
2019-05-03T06:05:05.001Z,13.30
2019-05-03T06:07:50.327Z,13.50
2019-05-03T06:10:22.188Z,13.60
2019-05-03T06:12:56.347Z,13.80
2019-05-03T06:15:26.721Z,13.90
2019-05-03T06:17:55.485Z,13.90
2019-05-03T06:20:26.845Z,13.90
2019-05-03T06:22:55.021Z,13.90
2019-05-03T06:25:29.226Z,13.90
2019-05-03T06:27:55.971Z,13.80
2019-05-03T06:30:24.829Z,13.80
2019-05-03T06:32:51.400Z,13.80
2019-05-03T06:35:17.729Z,13.80
2019-05-03T06:37:45.955Z,13.90
2019-05-03T06:40:14.769Z,14.10
2019-05-03T06:42:51.587Z,14.20
2019-05-03T06:45:11.702Z,14.30
2019-05-03T06:47:40.377Z,14.30
2019-05-03T06:50:07.297Z,14.30
2019-05-03T06:52:35.159Z,14.30
2019-05-03T06:55:06.439Z,14.40
2019-05-03T06:57:29.961Z,14.30
2019-05-03T07:00:10.217Z,14.30
2019-05-03T07:02:47.709Z,14.30
2019-05-03T07:05:31.124Z,14.20
2019-05-03T07:08:02.028Z,14.20
2019-05-03T07:10:36.090Z,14.20
2019-05-03T07:13:04.936Z,14.20
2019-05-03T07:15:31.631Z,14.20
2019-05-03T07:17:57.939Z,14.20
2019-05-03T07:20:25.529Z,14.20
2019-05-03T07:22:55.543Z,14.20
2019-05-03T07:25:22.367Z,14.20
2019-05-03T07:27:48.638Z,14.10
2019-05-03T07:30:15.698Z,14.10
2019-05-03T07:32:44.878Z,14.00
2019-05-03T07:35:11.481Z,14.00
2019-05-03T07:37:38.122Z,14.00
2019-05-03T07:40:05.466Z,13.90
2019-05-03T07:42:32.124Z,13.90
2019-05-03T07:44:58.509Z,13.80
2019-05-03T07:47:24.854Z,13.80
2019-05-03T07:49:51.198Z,13.80
2019-05-03T07:52:17.529Z,13.80
2019-05-03T07:54:45.172Z,13.80
2019-05-03T07:57:30.157Z,13.80
2019-05-03T07:59:56.411Z,13.80
2019-05-03T08:02:25.161Z,13.80
2019-05-03T08:04:50.993Z,13.80
2019-05-03T08:07:22.307Z,13.70
2019-05-03T08:09:45.817Z,13.80
2019-05-03T08:12:15.364Z,13.90
2019-05-03T08:14:40.529Z,14.00
2019-05-03T08:17:06.827Z,14.20
2019-05-03T08:19:35.523Z,14.30
2019-05-03T08:22:01.346Z,14.40
2019-05-03T08:24:27.675Z,14.50
2019-05-03T08:26:55.744Z,14.60
2019-05-03T08:29:22.061Z,14.60
2019-05-03T08:31:54.582Z,14.70
2019-05-03T08:34:22.961Z,14.70
2019-05-03T08:37:00.422Z,14.70
2019-05-03T08:39:26.756Z,14.60
2019-05-03T08:41:57.997Z,14.50
2019-05-03T08:44:25.177Z,14.40
2019-05-03T08:46:51.592Z,14.30
2019-05-03T08:49:17.909Z,14.30
2019-05-03T08:51:44.428Z,14.20
2019-05-03T08:54:10.878Z,14.20
2019-05-03T08:56:37.213Z,14.20
2019-05-03T08:59:04.669Z,14.20
2019-05-03T09:01:31.202Z,14.30
2019-05-03T09:03:57.518Z,14.40
2019-05-03T09:06:24.831Z,14.40
2019-05-03T09:08:54.365Z,14.50
2019-05-03T09:11:30.779Z,14.60
2019-05-03T09:13:55.839Z,14.50
2019-05-03T09:16:22.337Z,14.60
2019-05-03T09:18:48.825Z,14.60
2019-05-03T09:21:15.125Z,14.60
2019-05-03T09:23:41.398Z,14.60
2019-05-03T09:26:07.698Z,14.60
2019-05-03T09:28:34.845Z,14.60
2019-05-03T09:31:01.398Z,14.70
2019-05-03T09:33:27.832Z,14.80
2019-05-03T09:35:55.074Z,14.80
2019-05-03T09:38:21.389Z,15.00
2019-05-03T09:40:47.745Z,15.20
2019-05-03T09:43:15.075Z,15.30
2019-05-03T09:45:41.533Z,15.30
2019-05-03T09:48:09.531Z,15.20
2019-05-03T09:50:36.050Z,15.20
2019-05-03T09:53:02.673Z,15.20
2019-05-03T09:55:35.507Z,15.20
2019-05-03T09:58:02.107Z,15.20
2019-05-03T10:00:28.420Z,15.30
2019-05-03T10:02:54.872Z,15.40
2019-05-03T10:05:21.336Z,15.40
2019-05-03T10:07:47.720Z,15.50
2019-05-03T10:10:15.427Z,15.50
2019-05-03T10:12:41.820Z,15.40
2019-05-03T10:15:09.138Z,15.30
2019-05-03T10:17:37.309Z,15.30
2019-05-03T10:20:06.826Z,15.30
2019-05-03T10:22:34.881Z,15.40
2019-05-03T10:25:01.388Z,15.50
2019-05-03T10:27:29.728Z,15.60
2019-05-03T10:30:09.761Z,15.70
2019-05-03T10:32:38.085Z,15.80
2019-05-03T10:35:07.638Z,15.80
2019-05-03T10:37:35.863Z,15.80
2019-05-03T10:40:07.738Z,15.70
2019-05-03T10:42:32.185Z,15.70
2019-05-03T10:44:58.671Z,15.60
2019-05-03T10:47:25.521Z,15.60
2019-05-03T10:49:52.063Z,15.60
2019-05-03T10:52:20.478Z,15.70
2019-05-03T10:54:46.823Z,15.80
2019-05-03T10:57:15.912Z,15.90
2019-05-03T10:59:44.716Z,16.00
2019-05-03T11:02:18.605Z,16.00
2019-05-03T11:04:46.209Z,16.10
2019-05-03T11:07:14.742Z,16.30
2019-05-03T11:09:49.532Z,16.40
2019-05-03T11:12:09.096Z,16.60
2019-05-03T11:14:35.489Z,16.70
2019-05-03T11:17:01.811Z,16.80
2019-05-03T11:19:28.089Z,16.90
2019-05-03T11:21:54.842Z,17.00
2019-05-03T11:24:23.546Z,17.20
2019-05-03T11:26:51.210Z,17.30
2019-05-03T11:29:17.502Z,17.40
2019-05-03T11:31:48.485Z,17.50
2019-05-03T11:34:22.356Z,17.60
2019-05-03T11:36:49.698Z,17.60
2019-05-03T11:39:16.083Z,17.60
2019-05-03T11:41:45.076Z,17.60
2019-05-03T11:44:30.346Z,17.60
2019-05-03T11:46:56.617Z,17.60
2019-05-03T11:49:22.922Z,17.50
2019-05-03T11:51:49.345Z,17.50
2019-05-03T11:54:16.644Z,17.50
2019-05-03T11:56:44.941Z,17.40
2019-05-03T11:59:11.301Z,17.30
2019-05-03T12:01:39.497Z,17.30
2019-05-03T12:04:05.904Z,17.40
2019-05-03T12:06:32.202Z,17.40
2019-05-03T12:08:58.668Z,17.50
2019-05-03T12:11:25.951Z,17.60
2019-05-03T12:14:02.365Z,17.70
2019-05-03T12:16:48.104Z,17.70
2019-05-03T12:18:53.956Z,17.80
2019-05-03T12:21:20.412Z,17.80
2019-05-03T12:23:47.400Z,17.90
2019-05-03T12:26:17.190Z,17.90
2019-05-03T12:28:44.632Z,18.00
2019-05-03T12:31:25.986Z,18.00
2019-05-03T12:33:38.876Z,18.10
2019-05-03T12:36:05.610Z,18.10
2019-05-03T12:38:32.001Z,18.10
2019-05-03T12:40:58.698Z,18.20
2019-05-03T12:43:25.678Z,18.20
2019-05-03T12:45:52.432Z,18.30
2019-05-03T12:48:18.763Z,18.30
2019-05-03T12:50:46.436Z,18.30
2019-05-03T12:53:15.093Z,18.40
2019-05-03T12:55:41.356Z,18.30
2019-05-03T12:58:07.773Z,18.30
2019-05-03T13:00:42.062Z,18.30
2019-05-03T13:03:15.081Z,18.30
2019-05-03T13:05:41.588Z,18.20
2019-05-03T13:08:35.376Z,18.20
2019-05-03T13:11:01.945Z,18.10
2019-05-03T13:13:28.456Z,18.10
2019-05-03T13:15:55.013Z,18.00
2019-05-03T13:18:21.729Z,18.00
2019-05-03T13:20:48.307Z,18.00
2019-05-03T13:23:14.799Z,18.00
2019-05-03T13:25:41.232Z,17.90
2019-05-03T13:28:07.514Z,17.90
2019-05-03T13:30:34.546Z,17.90
2019-05-03T13:33:01.036Z,17.90
2019-05-03T13:35:27.372Z,17.90
2019-05-03T13:37:55.528Z,17.80
2019-05-03T13:40:21.884Z,17.80
2019-05-03T13:42:57.729Z,17.70
2019-05-03T13:45:16.635Z,17.70
2019-05-03T13:47:44.701Z,17.70
2019-05-03T13:50:11.193Z,17.80
2019-05-03T13:52:37.495Z,17.80
2019-05-03T13:55:05.427Z,17.80
2019-05-03T13:57:31.928Z,17.80
2019-05-03T13:59:58.253Z,17.80
2019-05-03T14:02:24.479Z,17.70
2019-05-03T14:04:52.932Z,17.80
2019-05-03T14:07:18.985Z,17.80
2019-05-03T14:09:45.412Z,17.70
2019-05-03T14:12:12.124Z,17.70
2019-05-03T14:14:55.738Z,17.70
2019-05-03T14:17:25.271Z,17.70
2019-05-03T14:19:54.519Z,17.60
2019-05-03T14:22:24.823Z,17.50
2019-05-03T14:24:51.050Z,17.30
2019-05-03T14:27:17.583Z,17.20
2019-05-03T14:29:45.456Z,17.10
2019-05-03T14:32:24.762Z,17.00
2019-05-03T14:34:40.057Z,17.00
2019-05-03T14:37:06.391Z,16.90
2019-05-03T14:39:32.719Z,16.80
2019-05-03T14:41:59.054Z,16.80
2019-05-03T14:44:25.433Z,16.80
2019-05-03T14:46:52.014Z,16.80
2019-05-03T14:49:18.448Z,16.80
2019-05-03T14:51:45.657Z,16.80
2019-05-03T14:54:12.134Z,16.80
2019-05-03T14:56:40.520Z,16.70
2019-05-03T14:59:27.038Z,16.70
2019-05-03T15:02:07.476Z,16.70
2019-05-03T15:04:35.069Z,16.70
2019-05-03T15:07:01.674Z,16.60
2019-05-03T15:09:28.517Z,16.60
2019-05-03T15:11:54.955Z,16.60
2019-05-03T15:14:21.893Z,16.60
2019-05-03T15:16:48.116Z,16.60
2019-05-03T15:19:14.920Z,16.60
2019-05-03T15:21:41.308Z,16.60
2019-05-03T15:24:07.829Z,16.60
2019-05-03T15:26:35.660Z,16.60
2019-05-03T15:29:02.236Z,16.60
2019-05-03T15:31:28.664Z,16.60
2019-05-03T15:33:55.522Z,16.60
2019-05-03T15:36:21.887Z,16.50
2019-05-03T15:38:48.404Z,16.50
2019-05-03T15:41:14.818Z,16.40
2019-05-03T15:43:45.201Z,16.30
2019-05-03T15:46:14.710Z,16.30
2019-05-03T15:49:40.768Z,16.30
2019-05-03T15:52:07.094Z,16.30
2019-05-03T15:54:35.201Z,16.30
2019-05-03T15:57:01.497Z,16.30
2019-05-03T15:59:27.835Z,16.30
2019-05-03T16:01:55.306Z,16.30
2019-05-03T16:04:22.035Z,16.20
2019-05-03T16:06:48.455Z,16.10
2019-05-03T16:09:15.317Z,16.10
2019-05-03T16:11:41.730Z,16.00
2019-05-03T16:14:07.999Z,15.90
2019-05-03T16:16:35.380Z,15.80
2019-05-03T16:19:01.847Z,15.70
2019-05-03T16:21:29.123Z,15.60
2019-05-03T16:23:55.760Z,15.60
2019-05-03T16:26:22.171Z,15.60
2019-05-03T16:28:55.100Z,15.60
2019-05-03T16:31:24.859Z,15.50
2019-05-03T16:33:52.018Z,15.50
2019-05-03T16:36:18.448Z,15.40
2019-05-03T16:38:45.011Z,15.30
2019-05-03T16:41:12.271Z,15.20
2019-05-03T16:43:38.701Z,15.10
2019-05-03T16:46:05.607Z,15.00
2019-05-03T16:48:32.574Z,15.00
2019-05-03T16:50:58.992Z,14.90
2019-05-03T16:53:25.558Z,14.80
2019-05-03T16:55:52.062Z,14.80
2019-05-03T16:58:18.335Z,14.70
2019-05-03T17:00:44.770Z,14.70
2019-05-03T17:03:11.361Z,14.60
2019-05-03T17:05:51.440Z,14.60
2019-05-03T17:08:25.633Z,14.50
2019-05-03T17:11:02.713Z,14.40
2019-05-03T17:13:29.141Z,14.40
2019-05-03T17:15:55.574Z,14.30
2019-05-03T17:18:24.509Z,14.30
2019-05-03T17:20:50.691Z,14.20
2019-05-03T17:23:17.235Z,14.20
2019-05-03T17:25:44.464Z,14.20
2019-05-03T17:28:11.122Z,14.10
2019-05-03T17:30:37.822Z,14.10
2019-05-03T17:33:04.580Z,14.00
2019-05-03T17:35:31.029Z,14.00
2019-05-03T17:37:57.491Z,13.90
2019-05-03T17:40:44.295Z,13.80
2019-05-03T17:43:21.560Z,13.70
2019-05-03T17:45:54.881Z,13.60
2019-05-03T17:48:21.083Z,13.60
2019-05-03T17:50:47.601Z,13.50
2019-05-03T17:53:25.944Z,13.40
2019-05-03T17:56:04.674Z,13.30
2019-05-03T17:58:45.107Z,13.30
2019-05-03T18:01:25.777Z,13.20
2019-05-03T18:04:10.668Z,13.20
2019-05-03T18:06:45.224Z,13.20
2019-05-03T18:09:14.895Z,13.10
2019-05-03T18:11:45.922Z,13.10
2019-05-03T18:14:12.360Z,13.10
2019-05-03T18:16:38.677Z,13.00
2019-05-03T18:19:05.242Z,13.00
2019-05-03T18:21:31.671Z,13.00
2019-05-03T18:23:58.293Z,13.00
2019-05-03T18:26:24.924Z,13.00
2019-05-03T18:28:51.450Z,12.90
2019-05-03T18:31:17.681Z,12.90
2019-05-03T18:33:44.382Z,12.90
2019-05-03T18:36:11.156Z,12.90
2019-05-03T18:38:38.762Z,12.80
2019-05-03T18:41:06.479Z,12.80
2019-05-03T18:43:35.067Z,12.80
2019-05-03T18:46:19.825Z,12.70
2019-05-03T18:48:46.132Z,12.70
2019-05-03T18:51:14.674Z,12.70
2019-05-03T18:53:41.120Z,12.60
2019-05-03T18:56:07.435Z,12.60
2019-05-03T18:58:33.836Z,12.60
2019-05-03T19:01:00.072Z,12.60
2019-05-03T19:03:26.492Z,12.60
2019-05-03T19:05:54.825Z,12.60
2019-05-03T19:08:24.705Z,12.50
2019-05-03T19:10:55.074Z,12.60
2019-05-03T19:13:26.474Z,12.50
2019-05-03T19:15:54.988Z,12.50
2019-05-03T19:18:29.053Z,12.50
2019-05-03T19:20:55.791Z,12.50
2019-05-03T19:23:22.255Z,12.50
2019-05-03T19:25:49.646Z,12.50
2019-05-03T19:28:16.687Z,12.40
2019-05-03T19:30:45.076Z,12.40
2019-05-03T19:33:11.572Z,12.40
2019-05-03T19:35:38.075Z,12.40
2019-05-03T19:38:04.905Z,12.40
2019-05-03T19:40:31.246Z,12.40
2019-05-03T19:42:57.676Z,12.30
2019-05-03T19:45:24.839Z,12.30
2019-05-03T19:47:51.387Z,12.30
2019-05-03T19:50:17.799Z,12.30
2019-05-03T19:53:02.742Z,12.20
2019-05-03T19:55:29.095Z,12.20
2019-05-03T19:57:55.355Z,12.10
2019-05-03T20:00:23.087Z,11.90
2019-05-03T20:02:54.445Z,11.80
2019-05-03T20:05:22.951Z,11.70
2019-05-03T20:08:05.539Z,11.60
2019-05-03T20:10:34.949Z,11.40
2019-05-03T20:13:00.849Z,11.30
2019-05-03T20:15:27.180Z,11.30
2019-05-03T20:17:59.305Z,11.20
2019-05-03T20:20:21.653Z,11.10
2019-05-03T20:22:48.014Z,11.10
2019-05-03T20:25:15.148Z,11.00
2019-05-03T20:27:41.557Z,11.00
2019-05-03T20:30:08.257Z,10.90
2019-05-03T20:32:34.889Z,10.80
2019-05-03T20:35:13.043Z,10.80
2019-05-03T20:37:30.688Z,10.80
2019-05-03T20:39:57.254Z,10.80
2019-05-03T20:42:25.359Z,10.80
2019-05-03T20:44:54.471Z,10.80
2019-05-03T20:47:22.893Z,10.80
2019-05-03T20:50:15.514Z,10.80
2019-05-03T20:52:44.332Z,10.80
2019-05-03T20:55:11.247Z,10.80
2019-05-03T20:57:37.600Z,10.80
2019-05-03T21:00:06.083Z,10.80
2019-05-03T21:02:34.386Z,10.90
2019-05-03T21:05:00.584Z,10.80
2019-05-03T21:07:26.878Z,10.90
2019-05-03T21:09:54.750Z,10.90
2019-05-03T21:12:21.449Z,10.90
2019-05-03T21:14:48.075Z,10.90
2019-05-03T21:17:19.216Z,10.90
2019-05-03T21:19:50.964Z,10.90
2019-05-03T21:22:19.158Z,10.90
2019-05-03T21:24:47.357Z,10.90
2019-05-03T21:27:13.635Z,10.90
2019-05-03T21:29:48.774Z,10.90
2019-05-03T21:32:15.204Z,10.90
2019-05-03T21:34:41.536Z,10.90
2019-05-03T21:37:09.507Z,10.90
2019-05-03T21:39:36.160Z,10.80
2019-05-03T21:42:04.624Z,10.80
2019-05-03T21:44:31.508Z,10.70
2019-05-03T21:46:59.710Z,10.60
2019-05-03T21:49:28.239Z,10.50
2019-05-03T21:51:54.564Z,10.40
2019-05-03T21:54:20.986Z,10.40
2019-05-03T21:56:47.418Z,10.30
2019-05-03T21:59:13.660Z,10.20
2019-05-03T22:01:42.025Z,10.10
2019-05-03T22:04:08.355Z,10.00
2019-05-03T22:06:35.058Z,9.90
2019-05-03T22:09:04.596Z,9.80
2019-05-03T22:11:31.032Z,9.80
2019-05-03T22:14:24.487Z,9.70
2019-05-03T22:16:58.815Z,9.50
2019-05-03T22:19:25.473Z,9.60
2019-05-03T22:21:55.304Z,9.50
2019-05-03T22:24:25.268Z,9.50
2019-05-03T22:27:04.547Z,9.50
2019-05-03T22:29:30.742Z,9.40
2019-05-03T22:31:57.071Z,9.30
2019-05-03T22:34:25.475Z,9.30
2019-05-03T22:39:18.074Z,9.20
2019-05-03T22:41:44.447Z,9.20
2019-05-03T22:44:10.778Z,9.20
2019-05-03T22:46:37.037Z,9.20
2019-05-03T22:49:04.883Z,9.20
2019-05-03T22:51:34.557Z,9.20
2019-05-03T22:53:59.496Z,9.20
2019-05-03T22:56:26.030Z,9.20
2019-05-03T22:58:54.740Z,9.20
2019-05-03T23:01:20.820Z,9.20
2019-05-03T23:03:47.159Z,9.20
2019-05-03T23:06:20.391Z,9.20
2019-05-03T23:08:41.757Z,9.20
2019-05-03T23:11:08.019Z,9.20
2019-05-03T23:13:34.335Z,9.10
2019-05-03T23:16:00.744Z,9.00
2019-05-03T23:18:27.075Z,9.00
2019-05-03T23:21:07.222Z,8.90
2019-05-03T23:23:49.875Z,8.90
2019-05-03T23:26:16.478Z,8.80
2019-05-03T23:28:44.604Z,8.70
2019-05-03T23:31:11.188Z,8.60
2019-05-03T23:33:37.521Z,8.60
2019-05-03T23:36:04.569Z,8.50
2019-05-03T23:38:30.961Z,8.50
2019-05-03T23:40:57.331Z,8.50
2019-05-03T23:43:25.170Z,8.40
2019-05-03T23:45:51.586Z,8.40
2019-05-03T23:48:17.958Z,8.40
2019-05-03T23:50:44.648Z,8.40
2019-05-03T23:53:11.038Z,8.40
2019-05-03T23:55:39.209Z,8.40
2019-05-03T23:58:05.636Z,8.40
